CheckWX is a tool to help pilots better visualize weather data.  It is not intended as a substitute for an official pre-flight weather briefing.

08:03:18 UTC

CYKF TAF
Waterloo Airport
Kitchener, Canada
TAF CYKF 190739Z 1908/1920 VRB03KT P6SM FEW020 BKN050 TEMPO 1908/1910 BKN020 FM191000 VRB03KT 6SM BR FEW020 TEMPO 1910/1913 3SM BR PROB30 1910/1913 1SM BR FM191300 VRB03KT P6SM FEW050 BECMG 1915/1917 26010KT RMK FCST BASED ON AUTO OBS. NXT FCST BY 191400Z

Mar-19@
08:00 UTC

Mar-19 @ 08:00 UTC

Mar-19@
10:00 UTC

Mar-19 @ 10:00 UTC

TAF CYKF 190739Z 1908/1920 VRB03KT P6SM FEW020 BKN050
Wind
  • Variable at 3 KTS
Cloud Levels
  • Few at 2,000' AGL
  • Broken at 5,000' AGL

Mar-19@
08:00 UTC

Mar-19 @ 08:00 UTC

Mar-19@
10:00 UTC

Mar-19 @ 10:00 UTC

TEMPO 1908/1910 BKN020

Temporary

Temporary Changes expected for less than half the time period

Cloud Levels
  • Broken at 2,000' AGL

Mar-19@
10:00 UTC

Mar-19 @ 10:00 UTC

Mar-19@
13:00 UTC

Mar-19 @ 13:00 UTC

FM191000 VRB03KT 6SM BR FEW020

From

From Standard forecast or significant change

Wind
  • Variable at 3 KTS
Conditions
Mist
Cloud Levels
  • Few at 2,000' AGL

Mar-19@
10:00 UTC

Mar-19 @ 10:00 UTC

Mar-19@
13:00 UTC

Mar-19 @ 13:00 UTC

TEMPO 1910/1913 3SM BR

Temporary

Temporary Changes expected for less than half the time period

Conditions
Mist

Mar-19@
10:00 UTC

Mar-19 @ 10:00 UTC

Mar-19@
13:00 UTC

Mar-19 @ 13:00 UTC

PROB30 1910/1913 1SM BR

Probable - 30% Likelihood

Probable - 30% Likelihood during this time.

Conditions
Mist

Mar-19@
13:00 UTC

Mar-19 @ 13:00 UTC

Mar-19@
15:00 UTC

Mar-19 @ 15:00 UTC

FM191300 VRB03KT P6SM FEW050

From

From Standard forecast or significant change

Wind
  • Variable at 3 KTS
Cloud Levels
  • Few at 5,000' AGL

Mar-19@
15:00 UTC

Mar-19 @ 15:00 UTC

Mar-19@
20:00 UTC

Mar-19 @ 20:00 UTC

BECMG 1915/1917 26010KT RMK FCST BASED ON AUTO OBS. NXT FCST BY 191400Z

Becoming

Becoming Conditions expected by Tue, Mar 19, 2019 @ 17:00 UTC

Wind
  • 260° at 10 KTS
Cloud Levels
  • Few at 5,000' AGL